Time;durP1;ratioP1;P1;durP2;ratioP2;P2;SDS_P1;SDS_P2;PMS_P1;PMS_P2;Temp;Humidity;BMP_temperature;BMP_pressure;BME280_temperature;BME280_humidity;BME280_pressure;Samples;Min_cycle;Max_cycle;Signal;HPM_P1;HPM_P2
2023/03/06 00:02:24;;;;;;;1.05;0.95;;;;;;;3.29;82.59;101066.44;4998070;28;96934;-29
2023/03/06 00:04:49;;;;;;;0.57;0.38;;;;;;;3.26;82.05;101059.38;4997443;28;97998;-30
2023/03/06 00:07:14;;;;;;;1.08;0.75;;;;;;;3.25;82.85;101046.94;4997464;28;99673;-30
2023/03/06 00:09:40;;;;;;;0.38;0.38;;;;;;;3.23;82.20;101045.22;4997523;28;96875;-30
2023/03/06 00:12:06;;;;;;;0.28;0.28;;;;;;;3.24;82.29;101046.97;4997984;28;96766;-30
2023/03/06 00:14:31;;;;;;;0.68;0.43;;;;;;;3.25;82.08;101049.59;4995964;28;102156;-30
2023/03/06 00:16:56;;;;;;;0.40;0.38;;;;;;;3.23;81.81;101045.22;4998020;28;97857;-30
2023/03/06 00:19:22;;;;;;;0.47;0.30;;;;;;;3.17;82.22;101040.91;4997163;28;96643;-30
2023/03/06 00:21:47;;;;;;;0.38;0.38;;;;;;;3.12;81.94;101041.06;4997716;28;96742;-30
2023/03/06 00:24:13;;;;;;;0.10;0.10;;;;;;;3.07;82.32;101031.38;4996809;28;97879;-32
2023/03/06 00:26:40;;;;;;;1.75;0.28;;;;;;;3.07;82.03;101034.06;4997468;28;97844;-29
2023/03/06 00:29:06;;;;;;;5.25;0.30;;;;;;;3.02;82.12;101035.97;4996035;28;96651;-30
2023/03/06 00:31:31;;;;;;;0.20;0.17;;;;;;;2.91;82.35;101022.91;4996026;28;96670;-30
2023/03/06 00:33:56;;;;;;;0.55;0.50;;;;;;;2.90;82.22;101027.34;4997017;28;97038;-29
2023/03/06 00:36:22;;;;;;;1.20;0.47;;;;;;;2.89;82.37;101030.97;4996976;28;97261;-30
2023/03/06 00:38:47;;;;;;;0.20;0.20;;;;;;;2.84;81.90;101026.69;4997256;28;96563;-31
2023/03/06 00:41:13;;;;;;;1.10;1.00;;;;;;;2.83;82.22;101030.25;4997724;28;96757;-30
2023/03/06 00:43:38;;;;;;;0.47;0.40;;;;;;;2.80;82.49;101016.97;4996781;28;98760;-30
2023/03/06 00:46:04;;;;;;;0.47;0.40;;;;;;;2.73;81.93;101018.91;4995800;28;100663;-30
2023/03/06 00:48:33;;;;;;;0.40;0.30;;;;;;;2.71;82.35;101010.91;4995370;28;96629;-30
2023/03/06 00:50:58;;;;;;;1.45;1.05;;;;;;;2.69;82.57;101007.44;4995737;28;96779;-31
2023/03/06 00:53:24;;;;;;;0.65;0.45;;;;;;;2.63;82.05;100996.91;4996727;28;99603;-30
2023/03/06 00:55:50;;;;;;;0.50;0.50;;;;;;;2.62;82.30;101003.19;4995260;28;100995;-30
2023/03/06 00:58:16;;;;;;;0.63;0.47;;;;;;;2.61;82.53;101000.53;4996926;28;96592;-30
2023/03/06 01:00:42;;;;;;;1.55;0.85;;;;;;;2.59;82.57;100989.00;4995734;28;96762;-31
2023/03/06 01:03:07;;;;;;;0.80;0.80;;;;;;;2.61;82.12;100996.06;4996647;28;97372;-30
2023/03/06 01:05:35;;;;;;;1.10;0.68;;;;;;;2.57;82.50;100986.34;4997158;28;97851;-30
2023/03/06 01:08:00;;;;;;;2.20;0.88;;;;;;;2.59;82.63;100986.31;4995341;28;96855;-30
2023/03/06 01:10:26;;;;;;;0.77;0.70;;;;;;;2.55;82.49;100986.41;4995502;28;96794;-30
2023/03/06 01:12:53;;;;;;;1.10;0.55;;;;;;;2.52;82.59;100991.81;4994495;28;100911;-30
2023/03/06 01:15:19;;;;;;;1.65;0.73;;;;;;;2.49;82.76;100989.22;4994978;28;100790;-30
2023/03/06 01:17:44;;;;;;;0.55;0.55;;;;;;;2.46;82.95;100983.97;4996645;28;96808;-31
2023/03/06 01:20:14;;;;;;;0.50;0.50;;;;;;;2.48;82.89;100982.13;4996648;28;96879;-29
2023/03/06 01:22:39;;;;;;;1.40;0.95;;;;;;;2.46;82.88;100970.59;4994969;28;100829;-30
2023/03/06 01:25:05;;;;;;;1.95;0.95;;;;;;;2.45;83.18;100963.47;4996207;28;97764;-30
2023/03/06 01:27:30;;;;;;;2.33;1.13;;;;;;;2.47;83.05;100976.81;4995146;28;96662;-31
2023/03/06 01:29:56;;;;;;;1.42;0.95;;;;;;;2.46;82.85;100967.94;4997133;28;96729;-30
2023/03/06 01:32:21;;;;;;;2.17;1.17;;;;;;;2.45;83.01;100971.50;4995821;28;99957;-29
2023/03/06 01:34:47;;;;;;;1.35;0.90;;;;;;;2.46;83.18;100967.94;4996021;28;99499;-29
2023/03/06 01:37:12;;;;;;;1.30;0.85;;;;;;;2.51;82.93;100978.50;4995943;28;96692;-30
2023/03/06 01:39:37;;;;;;;1.15;0.80;;;;;;;2.48;83.18;100973.22;4996218;28;96809;-30
2023/03/06 01:42:03;;;;;;;0.50;0.47;;;;;;;2.48;83.45;100976.78;4996119;28;97843;-30
2023/03/06 01:44:29;;;;;;;1.98;1.38;;;;;;;2.48;83.38;100973.22;4994497;28;100594;-30
2023/03/06 01:46:54;;;;;;;2.20;1.15;;;;;;;2.47;83.10;100961.66;4996182;28;96652;-30
2023/03/06 01:49:29;;;;;;;2.28;1.45;;;;;;;2.47;83.58;100963.44;4996156;28;96814;-29
2023/03/06 01:52:07;;;;;;;1.05;1.00;;;;;;;2.41;83.40;100960.94;4994610;28;100939;-30
2023/03/06 01:54:51;;;;;;;0.73;0.70;;;;;;;2.45;83.74;100971.50;4994772;28;101021;-30
2023/03/06 01:57:20;;;;;;;1.88;1.30;;;;;;;2.40;83.74;100961.84;4995922;28;96725;-29
2023/03/06 01:59:51;;;;;;;1.55;1.25;;;;;;;2.38;83.86;100966.38;4994746;28;96972;-32
2023/03/06 02:02:18;;;;;;;0.85;0.75;;;;;;;2.37;83.89;100965.50;4995269;28;99371;-30
2023/03/06 02:04:45;;;;;;;1.27;0.93;;;;;;;2.33;83.52;100956.66;4994178;28;99023;-30
2023/03/06 02:07:11;;;;;;;1.95;0.82;;;;;;;2.28;83.79;100947.88;4994599;28;96560;-29
2023/03/06 02:09:37;;;;;;;0.38;0.38;;;;;;;2.29;83.83;100943.44;4994408;28;96855;-30
2023/03/06 02:12:16;;;;;;;1.65;1.05;;;;;;;2.29;83.46;100957.69;4993903;28;101220;-30
2023/03/06 02:14:42;;;;;;;0.60;0.60;;;;;;;2.24;83.57;100939.97;4995683;28;97790;-31
2023/03/06 02:17:11;;;;;;;0.25;0.25;;;;;;;2.25;83.98;100947.09;4994494;28;96639;-30
2023/03/06 02:19:57;;;;;;;1.50;1.40;;;;;;;2.21;83.85;100938.28;4994452;28;96854;-30
2023/03/06 02:22:30;;;;;;;0.85;0.57;;;;;;;2.19;83.50;100937.44;4993963;28;101044;-30
2023/03/06 02:25:31;;;;;;;1.10;0.93;;;;;;;2.16;83.32;100931.31;4993592;28;100881;-30
2023/03/06 02:27:57;;;;;;;0.55;0.47;;;;;;;2.09;83.68;100917.22;4991890;28;96758;-31
2023/03/06 02:30:25;;;;;;;1.48;0.93;;;;;;;2.09;83.24;100926.09;4995787;28;96749;-30
2023/03/06 02:32:51;;;;;;;0.22;0.15;;;;;;;2.07;83.56;100922.63;4993654;28;100978;-30
2023/03/06 02:35:37;;;;;;;0.32;0.32;;;;;;;2.04;83.38;100911.97;4995104;28;99029;-30
2023/03/06 02:38:08;;;;;;;0.20;0.20;;;;;;;2.04;83.38;100906.66;4995835;28;97113;-30
2023/03/06 02:40:34;;;;;;;4.18;0.65;;;;;;;2.01;83.45;100906.72;4994101;28;96722;-31
2023/03/06 02:42:59;;;;;;;0.22;0.22;;;;;;;2.01;83.74;100904.06;4995162;28;98480;-32
2023/03/06 02:45:35;;;;;;;0.47;0.43;;;;;;;2.02;83.60;100905.81;4994085;28;99259;-30
2023/03/06 02:48:01;;;;;;;0.03;0.03;;;;;;;2.02;83.49;100904.94;4994134;28;96591;-29
2023/03/06 02:50:27;;;;;;;0.30;0.25;;;;;;;2.00;83.41;100893.41;4993893;28;96898;-30
2023/03/06 02:52:52;;;;;;;0.00;0.00;;;;;;;2.00;83.55;100891.63;4994403;28;98940;-29
2023/03/06 02:55:18;;;;;;;0.00;0.00;;;;;;;2.00;83.76;100885.38;4995250;28;97673;-30
2023/03/06 02:57:43;;;;;;;0.08;0.08;;;;;;;2.01;83.63;100884.50;4995587;28;96706;-30
2023/03/06 03:00:10;;;;;;;0.55;0.43;;;;;;;2.00;83.70;100880.94;4995077;28;96824;-30
2023/03/06 03:02:35;;;;;;;1.95;0.80;;;;;;;1.99;83.51;100879.19;4993335;28;101654;-31
2023/03/06 03:05:01;;;;;;;0.63;0.35;;;;;;;1.95;83.41;100881.97;4993262;28;99585;-31
2023/03/06 03:07:26;;;;;;;0.13;0.13;;;;;;;1.96;83.60;100873.06;4994917;28;96568;-30
2023/03/06 03:09:51;;;;;;;2.50;0.45;;;;;;;1.91;83.57;100874.03;4994998;28;96704;-30
2023/03/06 03:12:17;;;;;;;0.35;0.28;;;;;;;1.92;83.58;100866.91;4994387;28;97326;-30
2023/03/06 03:14:42;;;;;;;0.28;0.20;;;;;;;1.92;83.68;100873.09;4994855;28;97932;-30
2023/03/06 03:17:07;;;;;;;0.70;0.50;;;;;;;1.92;83.69;100869.56;4994435;28;96434;-30
2023/03/06 03:19:33;;;;;;;0.40;0.40;;;;;;;1.90;83.45;100868.72;4994665;28;96780;-30
2023/03/06 03:21:59;;;;;;;0.10;0.10;;;;;;;1.86;83.40;100859.94;4993155;28;100519;-30
2023/03/06 03:24:25;;;;;;;0.10;0.10;;;;;;;1.89;83.74;100862.50;4994341;28;97928;-30
2023/03/06 03:26:51;;;;;;;0.10;0.10;;;;;;;1.91;83.42;100870.50;4993165;28;96643;-30
2023/03/06 03:29:17;;;;;;;0.05;0.05;;;;;;;1.92;83.61;100870.44;4993538;28;96829;-30
2023/03/06 03:31:42;;;;;;;0.35;0.25;;;;;;;1.93;83.87;100871.31;4994292;28;99169;-31
2023/03/06 03:34:08;;;;;;;0.47;0.22;;;;;;;1.93;83.99;100865.97;4994908;28;97885;-30
2023/03/06 03:36:33;;;;;;;0.60;0.50;;;;;;;1.95;83.96;100861.47;4994488;28;96580;-30
2023/03/06 03:38:59;;;;;;;0.32;0.30;;;;;;;1.97;84.48;100862.31;4995008;28;96757;-30
2023/03/06 03:41:24;;;;;;;0.30;0.30;;;;;;;2.00;83.83;100851.56;4993773;28;97982;-30
2023/03/06 03:43:50;;;;;;;0.90;0.47;;;;;;;2.02;83.63;100852.38;4994369;28;97234;-30
2023/03/06 03:46:15;;;;;;;0.68;0.38;;;;;;;2.03;83.86;100848.81;4994634;28;96500;-29
2023/03/06 03:48:40;;;;;;;0.20;0.20;;;;;;;2.08;83.94;100848.69;4995007;28;96763;-30
2023/03/06 03:51:08;;;;;;;1.90;1.00;;;;;;;2.08;83.55;100838.00;4994336;28;98144;-32
2023/03/06 03:53:33;;;;;;;0.77;0.60;;;;;;;2.08;83.37;100832.66;4992734;28;101775;-30
2023/03/06 03:55:58;;;;;;;4.15;1.05;;;;;;;2.15;83.98;100836.03;4994237;28;96545;-30
2023/03/06 03:58:24;;;;;;;0.65;0.55;;;;;;;2.15;83.70;100828.03;4995048;28;96652;-31
2023/03/06 04:00:49;;;;;;;1.20;0.73;;;;;;;2.16;83.77;100833.31;4994579;28;97473;-31
2023/03/06 04:03:14;;;;;;;0.55;0.55;;;;;;;2.16;84.17;100824.44;4994181;28;97845;-30
2023/03/06 04:05:40;;;;;;;0.85;0.47;;;;;;;2.15;83.69;100817.34;4993944;28;96585;-29
2023/03/06 04:08:06;;;;;;;0.40;0.40;;;;;;;2.20;83.80;100821.63;4994195;28;96952;-29
2023/03/06 04:10:33;;;;;;;0.35;0.22;;;;;;;2.23;83.48;100820.66;4992553;28;100830;-30
2023/03/06 04:12:58;;;;;;;0.30;0.30;;;;;;;2.21;83.31;100817.16;4993653;28;99689;-30
2023/03/06 04:15:24;;;;;;;0.60;0.60;;;;;;;2.24;83.74;100817.06;4992884;28;96487;-29
2023/03/06 04:17:49;;;;;;;0.50;0.50;;;;;;;2.22;83.79;100811.78;4992887;28;96810;-29
2023/03/06 04:20:15;;;;;;;1.25;0.63;;;;;;;2.23;83.88;100813.53;4993502;28;99689;-30
2023/03/06 04:22:40;;;;;;;2.83;0.50;;;;;;;2.25;83.79;100809.00;4993849;28;97859;-29
2023/03/06 04:25:06;;;;;;;0.30;0.30;;;;;;;2.24;84.03;100809.94;4997276;28;96920;-31
2023/03/06 04:27:32;;;;;;;2.92;0.65;;;;;;;2.27;83.80;100806.31;4996120;28;96812;-30
2023/03/06 04:29:57;;;;;;;0.30;0.30;;;;;;;2.27;85.31;100806.31;4996768;28;97795;-29
2023/03/06 04:32:23;;;;;;;0.40;0.40;;;;;;;2.28;84.86;100794.69;4997228;28;97206;-30
2023/03/06 04:34:48;;;;;;;0.15;0.15;;;;;;;2.31;84.48;100797.25;4997565;28;96559;-29
2023/03/06 04:37:22;;;;;;;1.45;0.80;;;;;;;2.36;84.67;100797.13;4997743;28;96756;-30
2023/03/06 04:39:48;;;;;;;1.35;0.80;;;;;;;2.35;84.47;100780.22;4995322;28;99001;-30
2023/03/06 04:42:13;;;;;;;0.22;0.22;;;;;;;2.37;84.78;100785.53;4997162;28;97781;-29
2023/03/06 04:44:39;;;;;;;0.13;0.13;;;;;;;2.37;84.45;100777.53;4997177;28;96501;-30
2023/03/06 04:47:04;;;;;;;0.90;0.77;;;;;;;2.40;84.49;100780.09;4997690;28;96886;-30
2023/03/06 04:49:30;;;;;;;0.38;0.28;;;;;;;2.38;84.68;100782.81;4997031;28;97932;-31
2023/03/06 04:51:55;;;;;;;0.55;0.30;;;;;;;2.40;85.43;100772.94;4997084;28;97290;-30
2023/03/06 04:54:20;;;;;;;1.55;1.08;;;;;;;2.41;84.02;100771.16;4996629;28;96508;-31
2023/03/06 04:56:46;;;;;;;1.48;0.80;;;;;;;2.42;85.00;100772.91;4997238;28;96770;-30
2023/03/06 04:59:11;;;;;;;0.28;0.28;;;;;;;2.42;84.86;100775.59;4996531;28;99245;-32
2023/03/06 05:01:36;;;;;;;0.15;0.15;;;;;;;2.43;84.95;100782.66;4996927;28;97719;-30
2023/03/06 05:04:02;;;;;;;0.40;0.20;;;;;;;2.47;85.17;100776.31;4997096;28;96467;-30
2023/03/06 05:06:27;;;;;;;0.13;0.13;;;;;;;2.48;85.05;100783.41;4997139;28;96864;-30
2023/03/06 05:08:53;;;;;;;2.75;1.27;;;;;;;2.48;84.42;100778.06;4996039;28;97884;-29
2023/03/06 05:11:18;;;;;;;0.38;0.28;;;;;;;2.52;84.81;100787.75;4997414;28;97687;-30
2023/03/06 05:13:43;;;;;;;0.20;0.20;;;;;;;2.50;84.40;100777.13;4997232;28;96384;-29
2023/03/06 05:16:09;;;;;;;0.73;0.40;;;;;;;2.49;85.13;100775.34;4997090;28;96745;-30
2023/03/06 05:18:35;;;;;;;0.20;0.10;;;;;;;2.52;85.04;100775.25;4995701;28;97977;-30
2023/03/06 05:21:00;;;;;;;0.32;0.22;;;;;;;2.53;84.98;100769.00;4995070;28;100950;-30
2023/03/06 05:23:27;;;;;;;0.75;0.65;;;;;;;2.58;85.22;100768.88;4996730;28;96442;-29
2023/03/06 05:25:52;;;;;;;0.10;0.10;;;;;;;2.58;84.63;100768.00;4995187;28;96786;-30
2023/03/06 05:28:18;;;;;;;0.30;0.30;;;;;;;2.62;85.06;100764.28;4996486;28;98081;-30
2023/03/06 05:30:43;;;;;;;0.57;0.52;;;;;;;2.66;84.95;100769.50;4996395;28;97883;-31
2023/03/06 05:33:08;;;;;;;1.17;0.88;;;;;;;2.65;84.87;100764.22;4996332;28;96631;-31
2023/03/06 05:35:34;;;;;;;0.03;0.03;;;;;;;2.69;84.94;100772.09;4997108;28;96816;-29
2023/03/06 05:37:59;;;;;;;0.63;0.60;;;;;;;2.71;85.14;100775.59;4996177;28;97533;-30
2023/03/06 05:40:25;;;;;;;0.68;0.60;;;;;;;2.71;84.69;100772.91;4996026;28;98590;-31
2023/03/06 05:42:50;;;;;;;0.43;0.32;;;;;;;2.70;85.05;100757.81;4996025;28;96702;-29
2023/03/06 05:45:16;;;;;;;0.50;0.50;;;;;;;2.73;84.44;100762.19;4996112;28;96758;-30
2023/03/06 05:47:41;;;;;;;1.42;0.40;;;;;;;2.72;84.90;100760.44;4996117;28;97453;-30
2023/03/06 05:50:09;;;;;;;0.70;0.60;;;;;;;2.72;85.39;100763.13;4995853;28;98745;-30
2023/03/06 05:52:35;;;;;;;0.20;0.10;;;;;;;2.71;85.01;100764.88;4994885;28;96610;-30
2023/03/06 05:55:00;;;;;;;0.57;0.52;;;;;;;2.69;85.32;100763.19;4996066;28;96731;-30
2023/03/06 05:57:25;;;;;;;0.30;0.30;;;;;;;2.70;85.37;100765.81;4996042;28;97382;-31
2023/03/06 05:59:51;;;;;;;0.93;0.43;;;;;;;2.69;86.08;100755.16;4996298;28;97369;-30
2023/03/06 06:02:17;;;;;;;1.80;0.50;;;;;;;2.69;85.54;100757.84;4996294;28;96540;-31
2023/03/06 06:04:43;;;;;;;0.93;0.70;;;;;;;2.68;85.86;100758.78;4996110;28;96844;-30
2023/03/06 06:07:12;;;;;;;1.15;0.68;;;;;;;2.71;85.55;100761.34;4995452;28;97899;-30
2023/03/06 06:09:37;;;;;;;0.35;0.30;;;;;;;2.70;85.66;100760.47;4993720;28;100953;-30
2023/03/06 06:12:03;;;;;;;0.73;0.38;;;;;;;2.72;86.09;100763.97;4996255;28;96648;-30
2023/03/06 06:14:31;;;;;;;0.20;0.13;;;;;;;2.75;85.59;100766.56;4996081;28;96771;-31
2023/03/06 06:16:56;;;;;;;0.20;0.20;;;;;;;2.76;84.89;100772.78;4995498;28;98820;-31
2023/03/06 06:19:22;;;;;;;0.20;0.20;;;;;;;2.74;84.82;100767.50;4995126;28;99522;-30
2023/03/06 06:21:52;;;;;;;0.55;0.35;;;;;;;2.81;85.94;100786.00;4995961;28;96529;-30
2023/03/06 06:24:20;;;;;;;0.28;0.25;;;;;;;2.79;85.83;100777.16;4994497;28;96830;-29
2023/03/06 06:26:48;;;;;;;0.70;0.47;;;;;;;2.80;86.49;100781.59;4993935;28;100716;-31
2023/03/06 06:29:13;;;;;;;0.00;0.00;;;;;;;2.80;87.55;100778.91;4993967;28;100875;-32
2023/03/06 06:31:39;;;;;;;0.88;0.60;;;;;;;2.82;86.35;100779.75;4995304;28;96463;-31
2023/03/06 06:34:05;;;;;;;0.52;0.47;;;;;;;2.78;86.26;100776.28;4995619;28;96767;-32
2023/03/06 06:36:31;;;;;;;0.05;0.05;;;;;;;2.85;85.85;100777.84;4993351;28;101214;-31
2023/03/06 06:38:57;;;;;;;0.20;0.20;;;;;;;2.87;85.86;100781.34;4995007;28;99186;-32
2023/03/06 06:41:22;;;;;;;0.32;0.28;;;;;;;2.90;85.51;100775.03;4994604;28;96588;-30
2023/03/06 06:43:48;;;;;;;0.40;0.40;;;;;;;2.90;85.53;100775.03;4995177;28;96748;-30
2023/03/06 06:46:13;;;;;;;0.10;0.10;;;;;;;2.94;85.31;100779.38;4994346;28;97293;-31
2023/03/06 06:48:38;;;;;;;0.38;0.38;;;;;;;2.96;85.62;100780.19;4995471;28;97617;-30
2023/03/06 06:51:04;;;;;;;1.45;0.57;;;;;;;2.96;85.42;100780.19;4995349;28;96724;-30
2023/03/06 06:53:29;;;;;;;0.17;0.10;;;;;;;3.01;85.15;100778.25;4995065;28;96827;-30
2023/03/06 06:55:57;;;;;;;1.00;0.75;;;;;;;3.00;84.65;100773.81;4994583;28;98215;-29
2023/03/06 06:58:24;;;;;;;0.20;0.20;;;;;;;3.04;85.02;100775.47;4993639;28;101021;-30
2023/03/06 07:00:49;;;;;;;0.10;0.10;;;;;;;3.07;84.91;100782.53;4993509;28;97542;-30
2023/03/06 07:03:14;;;;;;;0.57;0.35;;;;;;;3.05;84.87;100768.31;4992685;28;97037;-30
2023/03/06 07:05:40;;;;;;;1.95;0.10;;;;;;;3.05;84.80;100766.53;4992261;28;97776;-30
2023/03/06 07:08:06;;;;;;;0.25;0.20;;;;;;;3.06;85.26;100765.59;4992381;28;97703;-30
2023/03/06 07:10:31;;;;;;;0.65;0.50;;;;;;;3.09;85.11;100786.91;4990506;28;96923;-30
2023/03/06 07:12:58;;;;;;;0.22;0.13;;;;;;;3.09;85.54;100775.31;4989182;28;96867;-31
2023/03/06 07:15:25;;;;;;;0.52;0.40;;;;;;;3.09;85.34;100778.00;4990141;28;98268;-30
2023/03/06 07:17:51;;;;;;;0.30;0.30;;;;;;;3.09;85.11;100783.34;4991448;28;98988;-31
2023/03/06 07:20:18;;;;;;;0.00;0.00;;;;;;;3.09;85.12;100781.53;4990203;28;97843;-30
2023/03/06 07:22:43;;;;;;;0.28;0.28;;;;;;;3.09;85.47;100792.25;4992273;28;96713;-33
2023/03/06 07:25:09;;;;;;;0.10;0.10;;;;;;;3.07;85.54;100788.75;4992240;28;97342;-30
2023/03/06 07:27:34;;;;;;;0.10;0.10;;;;;;;3.08;85.84;100781.63;4992036;28;99882;-29
2023/03/06 07:30:00;;;;;;;0.90;0.57;;;;;;;3.11;85.70;100789.53;4992260;28;96599;-30
2023/03/06 07:32:25;;;;;;;0.52;0.25;;;;;;;3.08;85.21;100773.59;4992155;28;96746;-30
2023/03/06 07:34:50;;;;;;;0.30;0.30;;;;;;;3.15;85.43;100780.50;4991456;28;99409;-30
2023/03/06 07:37:16;;;;;;;0.20;0.20;;;;;;;3.15;84.85;100762.63;4992308;28;97351;-30
2023/03/06 07:39:41;;;;;;;0.60;0.43;;;;;;;3.24;85.39;100763.25;4992218;28;96579;-31
2023/03/06 07:42:11;;;;;;;6.55;0.32;;;;;;;3.31;85.26;100776.41;4990600;28;96826;-30
2023/03/06 07:44:37;;;;;;;0.98;0.50;;;;;;;3.32;85.18;100769.25;4989991;28;100795;-30
2023/03/06 07:47:03;;;;;;;1.42;0.68;;;;;;;3.38;84.93;100775.28;4990414;28;101114;-29
2023/03/06 07:49:29;;;;;;;0.15;0.10;;;;;;;3.39;85.60;100768.97;4990427;28;96708;-31
2023/03/06 07:51:55;;;;;;;0.73;0.45;;;;;;;3.43;85.19;100767.06;4991984;28;96777;-30
2023/03/06 07:54:20;;;;;;;0.13;0.13;;;;;;;3.50;84.91;100770.41;4991946;28;97358;-30
2023/03/06 07:56:49;;;;;;;0.15;0.15;;;;;;;3.53;84.75;100770.34;4992605;28;97530;-30
2023/03/06 07:59:14;;;;;;;0.70;0.50;;;;;;;3.53;84.75;100767.66;4993913;28;96799;-30
2023/03/06 08:01:40;;;;;;;0.43;0.43;;;;;;;3.60;85.05;100778.09;4995801;28;96778;-31
2023/03/06 08:04:05;;;;;;;0.10;0.10;;;;;;;3.66;85.16;100771.66;4995023;28;98280;-30
2023/03/06 08:06:31;;;;;;;0.43;0.30;;;;;;;3.78;85.33;100771.22;4995069;28;98614;-32
2023/03/06 08:08:56;;;;;;;1.08;0.13;;;;;;;3.83;85.41;100781.78;4994603;28;96816;-30
2023/03/06 08:11:25;;;;;;;0.40;0.25;;;;;;;3.83;85.14;100777.28;4995048;28;96824;-31
2023/03/06 08:13:51;;;;;;;0.20;0.20;;;;;;;3.81;85.13;100762.19;4993598;28;101214;-29
2023/03/06 08:16:22;;;;;;;1.02;0.60;;;;;;;3.84;85.49;100778.19;4994996;28;97821;-30
2023/03/06 08:18:48;;;;;;;0.40;0.40;;;;;;;3.82;85.67;100772.88;4993449;28;96750;-29
2023/03/06 08:21:18;;;;;;;0.50;0.32;;;;;;;3.86;84.62;100778.97;4995179;28;96720;-30
2023/03/06 08:23:45;;;;;;;0.05;0.05;;;;;;;3.89;84.27;100759.28;4993475;28;101492;-30
2023/03/06 08:26:13;;;;;;;0.30;0.30;;;;;;;3.94;84.58;100765.34;4995012;28;97781;-29
2023/03/06 08:28:38;;;;;;;0.00;0.00;;;;;;;4.01;84.44;100764.19;4993609;28;96593;-31
2023/03/06 08:31:23;;;;;;;0.13;0.13;;;;;;;4.09;84.51;100770.13;4994988;28;96933;-31
2023/03/06 08:33:48;;;;;;;0.68;0.32;;;;;;;4.11;83.46;100770.09;4992725;28;101014;-29
2023/03/06 08:36:15;;;;;;;0.13;0.13;;;;;;;4.11;83.66;100765.59;4995173;28;96613;-30
2023/03/06 08:38:40;;;;;;;1.83;0.68;;;;;;;4.17;83.12;100773.44;4994943;28;96664;-30
2023/03/06 08:41:06;;;;;;;0.28;0.13;;;;;;;4.23;82.64;100773.19;4994913;28;96940;-30
2023/03/06 08:43:31;;;;;;;0.43;0.38;;;;;;;4.30;82.68;100764.94;4994378;28;97433;-30
2023/03/06 08:45:57;;;;;;;1.30;0.60;;;;;;;4.34;82.71;100763.84;4994637;28;97765;-31
2023/03/06 08:48:23;;;;;;;0.00;0.00;;;;;;;4.36;82.30;100772.72;4993093;28;96635;-29
2023/03/06 08:50:49;;;;;;;0.08;0.08;;;;;;;4.41;82.06;100765.38;4993559;28;97263;-32
2023/03/06 08:53:14;;;;;;;0.60;0.43;;;;;;;4.50;81.70;100770.41;4992917;28;99440;-30
2023/03/06 08:55:40;;;;;;;0.00;0.00;;;;;;;4.59;81.66;100770.06;4994372;28;97252;-30
2023/03/06 08:58:05;;;;;;;0.00;0.00;;;;;;;4.62;81.27;100769.97;4994280;28;96581;-31
2023/03/06 09:00:32;;;;;;;0.50;0.40;;;;;;;4.68;81.89;100772.41;4994455;28;96897;-30
2023/03/06 09:02:58;;;;;;;0.85;0.15;;;;;;;4.61;81.60;100770.88;4992856;28;100865;-30
2023/03/06 09:05:23;;;;;;;0.70;0.43;;;;;;;4.58;81.65;100768.31;4994311;28;97897;-30
2023/03/06 09:07:49;;;;;;;0.10;0.10;;;;;;;4.54;81.82;100772.03;4993665;28;96664;-31
2023/03/06 09:10:16;;;;;;;0.55;0.43;;;;;;;4.53;81.76;100770.31;4993812;28;96737;-30
2023/03/06 09:12:42;;;;;;;2.50;0.40;;;;;;;4.55;81.70;100776.47;4993881;28;97384;-30
2023/03/06 09:15:08;;;;;;;1.20;0.43;;;;;;;4.58;82.11;100780.88;4994511;28;97184;-30
2023/03/06 09:17:33;;;;;;;0.25;0.25;;;;;;;4.54;82.50;100780.09;4992690;28;97304;-30
2023/03/06 09:19:59;;;;;;;1.13;0.85;;;;;;;4.53;82.35;100778.34;4993746;28;96788;-29
2023/03/06 09:22:24;;;;;;;0.70;0.43;;;;;;;4.53;82.72;100777.47;4992372;28;98035;-31
2023/03/06 09:24:49;;;;;;;0.75;0.52;;;;;;;4.50;83.61;100782.94;4993740;28;97322;-30
2023/03/06 09:27:15;;;;;;;0.85;0.68;;;;;;;4.44;84.93;100784.94;4993470;28;96660;-30
2023/03/06 09:29:40;;;;;;;6.63;1.60;;;;;;;4.42;83.75;100784.09;4992602;28;96801;-30
2023/03/06 09:32:06;;;;;;;3.45;1.00;;;;;;;4.43;84.09;100784.97;4992356;28;100740;-30
2023/03/06 09:34:32;;;;;;;1.15;0.95;;;;;;;4.37;84.84;100779.84;4993880;28;97800;-30
2023/03/06 09:36:57;;;;;;;0.77;0.52;;;;;;;4.38;84.70;100786.97;4993714;28;96586;-30
2023/03/06 09:39:24;;;;;;;1.30;0.80;;;;;;;4.37;84.75;100785.22;4994445;28;96753;-29
2023/03/06 09:41:50;;;;;;;2.47;1.33;;;;;;;4.37;84.35;100774.50;4991979;28;101236;-30
2023/03/06 09:44:19;;;;;;;1.77;0.80;;;;;;;4.46;84.60;100782.19;4993610;28;97789;-30
2023/03/06 09:47:06;;;;;;;1.05;0.95;;;;;;;4.50;84.82;100780.25;4993089;28;96551;-32
2023/03/06 09:49:53;;;;;;;2.40;1.52;;;;;;;4.52;84.75;100773.91;4992372;28;96866;-30
2023/03/06 09:52:56;;;;;;;0.75;0.73;;;;;;;4.56;84.58;100780.03;4993183;28;99278;-29
2023/03/06 09:55:26;;;;;;;;;;;;;;;4.61;84.53;100772.69;4993848;28;97778;-32
2023/03/06 09:57:53;;;;;;;0.77;0.77;;;;;;;4.60;84.33;100771.81;4992401;28;96720;-29
2023/03/06 10:00:29;;;;;;;1.67;0.80;;;;;;;4.62;84.73;100774.44;4992089;28;97033;-29
2023/03/06 10:03:09;;;;;;;2.20;1.00;;;;;;;4.62;84.66;100766.38;4993415;28;97509;-31
2023/03/06 10:05:40;;;;;;;3.95;2.08;;;;;;;4.68;84.20;100767.03;4992375;28;99444;-30
2023/03/06 10:08:29;;;;;;;1.20;0.95;;;;;;;4.76;84.53;100768.53;4991347;28;96711;-30
2023/03/06 10:11:11;;;;;;;3.55;2.28;;;;;;;4.79;84.19;100772.00;4993468;28;96720;-29
2023/03/06 10:13:39;;;;;;;2.13;1.55;;;;;;;4.79;83.69;100766.63;4991305;28;100855;-29
2023/03/06 10:16:17;;;;;;;2.30;1.38;;;;;;;4.87;83.80;100763.63;4993011;28;97777;-30
2023/03/06 10:18:42;;;;;;;1.90;1.08;;;;;;;4.92;82.86;100758.97;4991651;28;96733;-31
2023/03/06 10:21:30;;;;;;;2.33;1.05;;;;;;;5.00;83.63;100759.50;4991829;28;96907;-30
2023/03/06 10:24:06;;;;;;;3.28;1.95;;;;;;;5.01;83.01;100755.91;4992731;28;99477;-30
2023/03/06 10:26:39;;;;;;;4.85;1.80;;;;;;;5.07;83.19;100752.09;4991588;28;100958;-30
2023/03/06 10:29:28;;;;;;;0.80;0.77;;;;;;;5.10;82.86;100750.19;4991721;28;96614;-31
2023/03/06 10:32:08;;;;;;;1.80;1.33;;;;;;;5.21;83.11;100752.41;4991927;28;97086;-30
2023/03/06 10:34:38;;;;;;;3.05;1.77;;;;;;;5.25;82.81;100745.97;4991414;28;101681;-29
2023/03/06 10:37:21;;;;;;;3.88;2.13;;;;;;;5.28;82.43;100751.22;4992745;28;99293;-30
2023/03/06 10:39:57;;;;;;;1.85;1.35;;;;;;;5.29;82.02;100741.34;4991107;28;97078;-30
2023/03/06 10:42:23;;;;;;;2.67;1.63;;;;;;;5.31;82.40;100740.38;4992812;28;96676;-30
2023/03/06 10:45:05;;;;;;;3.35;2.10;;;;;;;5.40;81.83;100736.41;4992681;28;97924;-30
2023/03/06 10:47:34;;;;;;;3.00;1.73;;;;;;;5.56;81.87;100736.66;4991268;28;100376;-29
2023/03/06 10:50:01;;;;;;;2.45;1.85;;;;;;;5.72;81.70;100739.53;4991211;28;96641;-30
2023/03/06 10:52:29;;;;;;;2.20;1.58;;;;;;;5.83;81.04;100729.19;4991392;28;96727;-30
2023/03/06 10:55:32;;;;;;;3.85;1.52;;;;;;;6.10;80.38;100731.63;4990805;28;101395;-30
2023/03/06 10:58:16;;;;;;;4.57;1.55;;;;;;;6.34;78.10;100719.75;4992299;28;99204;-30
2023/03/06 11:00:41;;;;;;;1.95;1.40;;;;;;;6.61;77.59;100723.94;4991165;28;96555;-31
2023/03/06 11:03:20;;;;;;;3.17;1.23;;;;;;;6.79;77.08;100717.66;4992546;28;96730;-29
2023/03/06 11:06:01;;;;;;;2.50;1.08;;;;;;;6.91;75.83;100727.84;4990593;28;101550;-29
2023/03/06 11:08:28;;;;;;;1.23;0.85;;;;;;;6.88;75.50;100713.66;4984741;28;98826;-30
2023/03/06 11:11:06;;;;;;;2.35;1.40;;;;;;;6.76;75.51;100710.59;4971302;28;96777;-30
2023/03/06 11:13:37;;;;;;;5.20;1.45;;;;;;;6.71;76.25;100711.78;4972713;28;96509;-29
2023/03/06 11:16:18;;;;;;;2.55;1.70;;;;;;;6.66;77.28;100708.44;4971114;28;101574;-29
2023/03/06 11:18:57;;;;;;;1.35;1.00;;;;;;;6.62;76.79;100707.69;4972346;28;97955;-29
2023/03/06 11:21:34;;;;;;;3.50;2.30;;;;;;;6.54;76.83;100702.69;4971099;28;96655;-30
2023/03/06 11:24:05;;;;;;;3.20;1.27;;;;;;;6.42;75.22;100697.88;4972662;28;96759;-30
2023/03/06 11:26:40;;;;;;;3.60;1.65;;;;;;;6.33;76.86;100695.63;4970731;28;102074;-29
2023/03/06 11:29:14;;;;;;;2.28;1.35;;;;;;;6.37;77.20;100697.22;4970913;28;100871;-31
2023/03/06 11:32:04;;;;;;;2.60;1.88;;;;;;;6.43;76.47;100699.63;4969991;28;97122;-30
2023/03/06 11:35:01;;;;;;;3.53;1.35;;;;;;;6.50;75.81;100687.63;4970754;28;96767;-30
2023/03/06 11:37:41;;;;;;;1.92;1.17;;;;;;;6.50;73.78;100690.31;4973903;28;99269;-31